Time;durP1;ratioP1;P1;durP2;ratioP2;P2;SDS_P1;SDS_P2;PMS_P1;PMS_P2;Temp;Humidity;BMP_temperature;BMP_pressure;BME280_temperature;BME280_humidity;BME280_pressure;Samples;Min_cycle;Max_cycle;Signal;HPM_P1;HPM_P2
2022/01/08 00:01:58;;;;;;;21.23;7.77;;;-3.50;99.90;;;-5.66;81.61;100467.47;10467053;27;97301;-82
2022/01/08 00:07:01;;;;;;;16.20;7.83;;;-3.40;99.90;;;-5.56;81.10;100465.41;10473323;27;98368;-82
2022/01/08 00:12:04;;;;;;;20.10;8.77;;;-3.30;99.90;;;-5.47;81.40;100467.59;10467582;27;96634;-82
2022/01/08 00:17:07;;;;;;;17.30;7.23;;;-3.20;99.90;;;-5.40;80.94;100456.09;10457615;27;96938;-82
2022/01/08 00:22:11;;;;;;;17.93;6.87;;;-3.20;99.90;;;-5.33;80.58;100456.72;10474247;27;98700;-82
2022/01/08 00:27:14;;;;;;;14.63;6.27;;;-3.00;99.90;;;-5.30;80.87;100454.84;10468380;27;99455;-81
2022/01/08 00:32:18;;;;;;;25.43;10.23;;;-3.00;99.90;;;-5.33;80.28;100443.78;10488543;27;97135;-81
2022/01/08 00:37:21;;;;;;;24.27;9.43;;;-3.00;99.90;;;-5.37;79.93;100443.03;10474673;27;96999;-81
2022/01/08 00:42:24;;;;;;;22.90;8.47;;;-3.00;99.90;;;-5.48;80.30;100430.50;10458888;27;98408;-82
2022/01/08 00:47:27;;;;;;;30.43;10.90;;;-3.00;99.90;;;-5.55;80.27;100431.66;10475268;27;97098;-82
2022/01/08 00:52:30;;;;;;;28.80;10.30;;;-3.10;99.90;;;-5.65;80.23;100428.59;10463271;27;98871;-82
2022/01/08 00:57:33;;;;;;;23.83;9.77;;;-3.20;99.90;;;-5.68;80.84;100423.53;10458108;27;96790;-81
2022/01/08 01:02:36;;;;;;;29.20;11.23;;;-3.20;99.90;;;-5.70;80.82;100411.53;10468245;27;98421;-82
2022/01/08 01:07:40;;;;;;;27.23;10.80;;;-3.30;99.90;;;-5.75;80.65;100409.16;10464616;27;96852;-81
2022/01/08 01:12:43;;;;;;;25.80;9.87;;;-3.30;99.90;;;-5.79;80.51;100404.16;10468797;27;97019;-81
2022/01/08 01:17:47;;;;;;;21.83;8.73;;;-3.40;99.90;;;-5.88;80.78;100382.03;10470905;27;97474;-82
2022/01/08 01:48:56;;;;;;;21.03;9.13;;;-3.80;99.90;;;-6.37;81.76;100352.91;10488022;27;97361;-82
2022/01/08 01:53:59;;;;;;;27.17;9.87;;;-3.90;99.90;;;-6.39;82.39;100349.53;10449078;27;96991;-82
2022/01/08 01:59:03;;;;;;;19.10;8.43;;;-3.90;99.90;;;-6.39;82.70;100346.94;10480988;27;96774;-82
2022/01/08 02:04:06;;;;;;;18.30;8.03;;;-4.00;99.90;;;-6.46;82.41;100342.91;10461928;27;98471;-82
2022/01/08 02:09:10;;;;;;;24.50;9.33;;;-4.00;99.90;;;-6.55;82.62;100353.56;10474944;27;99078;-82
2022/01/08 02:14:12;;;;;;;26.63;9.03;;;-4.00;99.90;;;-6.70;82.33;100343.81;10473145;27;98889;-81
2022/01/08 02:19:16;;;;;;;25.00;8.63;;;-4.20;99.90;;;-6.86;82.67;100339.19;10480221;27;96660;-82
2022/01/08 02:24:19;;;;;;;24.17;9.77;;;-4.30;99.90;;;-7.01;82.98;100334.56;10486067;27;98494;-82
2022/01/08 02:29:24;;;;;;;27.23;10.13;;;-4.40;99.90;;;-7.13;82.99;100330.69;10452720;27;97564;-82
2022/01/08 02:34:28;;;;;;;26.70;9.60;;;-4.50;99.90;;;-7.27;83.34;100323.38;10469586;27;96690;-82
2022/01/08 02:39:37;;;;;;;26.60;9.43;;;-4.60;99.90;;;-7.37;83.44;100316.88;10462317;27;98364;-82
2022/01/08 02:44:42;;;;;;;16.63;7.53;;;-4.70;99.90;;;-7.46;83.99;100322.31;10470732;27;98593;-82
2022/01/08 02:49:51;;;;;;;12.83;5.83;;;-4.80;99.90;;;-7.50;83.88;100314.72;10458171;27;96826;-86
2022/01/08 02:54:55;;;;;;;13.87;6.47;;;-4.90;99.90;;;-7.54;84.47;100311.44;10464892;27;97347;-82
2022/01/08 02:59:58;;;;;;;15.17;6.63;;;-4.90;99.90;;;-7.56;83.92;100311.47;10461895;27;96834;-82
2022/01/08 03:05:02;;;;;;;13.87;5.13;;;-4.90;99.90;;;-7.57;84.23;100302.03;10471766;27;97047;-82
2022/01/08 03:10:08;;;;;;;15.73;6.73;;;-4.90;99.90;;;-7.59;84.35;100309.00;10468641;27;97271;-83
2022/01/08 03:15:20;;;;;;;14.80;5.90;;;-5.00;99.90;;;-7.61;83.53;100308.22;10478155;27;96960;-82
2022/01/08 03:20:22;;;;;;;;;;;-5.00;99.90;;;-7.68;84.00;100300.69;10473265;27;97046;-83
2022/01/08 03:25:26;;;;;;;17.90;6.37;;;-5.00;99.90;;;-7.75;84.40;100312.13;10464524;27;99057;-83
2022/01/08 03:30:29;;;;;;;13.87;6.23;;;-5.10;99.90;;;-7.81;84.29;100308.84;10473153;27;98252;-82
2022/01/08 03:35:33;;;;;;;18.73;7.20;;;-5.20;99.90;;;-7.85;84.57;100298.69;10460143;27;97158;-83
2022/01/08 03:40:36;;;;;;;16.20;6.97;;;-5.20;99.90;;;-7.84;84.40;100303.78;10467176;27;98965;-83
2022/01/08 03:45:39;;;;;;;14.93;6.30;;;-5.20;99.90;;;-7.79;84.54;100313.97;10465421;27;96876;-83
2022/01/08 03:50:42;;;;;;;14.90;6.30;;;-5.20;99.90;;;-7.83;84.55;100318.38;10474866;27;96634;-83
2022/01/08 03:55:45;;;;;;;17.33;6.37;;;-5.20;99.90;;;-7.88;84.90;100328.00;10468561;27;98168;-83
2022/01/08 04:00:49;;;;;;;15.00;5.80;;;-5.30;99.90;;;-7.96;85.18;100324.81;10471919;27;97286;-80
2022/01/08 04:05:51;;;;;;;15.80;5.13;;;-5.30;99.90;;;-8.00;85.57;100324.97;10475468;27;96728;-81
2022/01/08 04:10:54;;;;;;;16.00;5.10;;;-5.40;99.90;;;-8.05;85.01;100317.34;10499362;27;96592;-81
2022/01/08 04:16:06;;;;;;;14.07;4.80;;;-5.40;99.90;;;-8.09;85.41;100310.63;10460232;27;98571;-83
2022/01/08 04:26:26;;;;;;;14.43;5.87;;;-5.50;99.90;;;-8.16;85.57;100293.63;10490063;27;96762;-83
2022/01/08 04:31:29;;;;;;;17.83;5.67;;;-5.50;99.90;;;-8.19;85.17;100284.28;10473703;27;98327;-82
2022/01/08 04:36:32;;;;;;;33.37;10.33;;;-5.60;99.90;;;-8.17;85.67;100284.22;10461595;27;98706;-83
2022/01/08 04:41:35;;;;;;;38.83;12.43;;;-5.60;99.90;;;-8.16;85.93;100283.31;10482665;27;97141;-84
2022/01/08 04:46:40;;;;;;;40.23;14.23;;;-5.60;99.90;;;-8.20;85.18;100271.44;10456585;27;97972;-82
2022/01/08 04:51:44;;;;;;;38.83;14.03;;;-5.60;99.90;;;-8.20;85.67;100276.59;10488084;27;96575;-83
2022/01/08 04:56:47;;;;;;;41.80;11.93;;;-5.60;99.90;;;-8.24;86.14;100281.00;10453755;27;97217;-82
2022/01/08 05:01:50;;;;;;;28.97;9.70;;;-5.70;99.90;;;-8.25;85.67;100275.88;10486128;27;96659;-82
2022/01/08 05:06:53;;;;;;;23.50;8.33;;;-5.70;99.90;;;-8.20;86.88;100261.13;10485998;27;97097;-83
2022/01/08 05:11:56;;;;;;;16.00;6.60;;;-5.70;99.90;;;-8.14;86.95;100261.78;10467667;27;97468;-84
2022/01/08 05:17:01;;;;;;;16.60;5.87;;;-5.60;99.90;;;-8.05;86.60;100258.03;10471474;27;96725;-83
2022/01/08 05:22:06;;;;;;;12.70;5.30;;;-5.50;99.90;;;-7.98;87.05;100272.41;10463370;27;97198;-83
2022/01/08 05:27:12;;;;;;;13.83;4.10;;;-5.50;99.90;;;-7.89;86.42;100263.56;10440624;27;97983;-83
2022/01/08 05:32:16;;;;;;;15.13;5.53;;;-5.40;99.90;;;-7.76;86.90;100251.09;10457088;27;97672;-83
2022/01/08 05:37:20;;;;;;;17.43;6.17;;;-5.30;99.90;;;-7.65;86.65;100249.00;10477690;27;96925;-83
2022/01/08 05:42:23;;;;;;;20.70;6.83;;;-5.20;99.90;;;-7.60;86.62;100252.28;10453895;27;98644;-83
2022/01/08 05:47:31;;;;;;;26.73;7.60;;;-5.10;99.90;;;-7.55;86.29;100260.72;10463133;27;97242;-87
2022/01/08 05:52:35;;;;;;;34.43;9.50;;;-5.10;99.90;;;-7.53;86.33;100268.38;10464714;27;97382;-87
2022/01/08 05:57:38;;;;;;;31.63;10.67;;;-5.10;99.90;;;-7.59;85.77;100282.34;10472326;27;97214;-88
2022/01/08 06:02:41;;;;;;;28.73;9.20;;;-5.10;99.90;;;-7.65;85.77;100285.97;10462303;27;97119;-84
2022/01/08 06:07:44;;;;;;;19.47;7.70;;;-5.10;99.90;;;-7.71;85.76;100293.91;10438839;27;98699;-84
2022/01/08 06:12:48;;;;;;;10.77;4.87;;;-5.20;99.90;;;-7.74;85.59;100313.81;10460830;27;98632;-87
2022/01/08 06:17:51;;;;;;;17.23;6.80;;;-5.20;99.90;;;-7.76;85.74;100300.13;10459608;27;97502;-88
2022/01/08 06:22:55;;;;;;;14.17;5.87;;;-5.20;99.90;;;-7.82;85.61;100299.41;10445529;27;98515;-91
2022/01/08 06:27:59;;;;;;;17.47;5.70;;;-5.30;99.90;;;-7.84;85.32;100290.06;10462673;27;97950;-89
2022/01/08 06:33:03;;;;;;;17.80;7.27;;;-5.30;99.90;;;-7.91;85.26;100297.16;10486441;27;97889;-89
2022/01/08 06:38:06;;;;;;;22.70;6.50;;;-5.30;99.90;;;-7.96;84.82;100299.03;10509946;27;97099;-89
2022/01/08 06:43:09;;;;;;;14.97;7.03;;;-5.40;99.90;;;-8.02;85.11;100299.22;10476783;27;96708;-90
2022/01/08 06:48:13;;;;;;;20.67;8.63;;;-5.40;99.90;;;-8.07;85.42;100305.41;10450000;27;97542;-88
2022/01/08 06:53:16;;;;;;;23.17;9.07;;;-5.50;99.90;;;-8.11;85.24;100308.06;10473242;27;97141;-90
2022/01/08 06:58:20;;;;;;;17.50;7.10;;;-5.60;99.90;;;-8.16;85.47;100299.63;10455512;27;96561;-90
2022/01/08 07:03:23;;;;;;;12.57;5.73;;;-5.60;99.90;;;-8.10;86.09;100299.44;10471135;27;97669;-87
2022/01/08 07:08:26;;;;;;;12.77;5.67;;;-5.60;99.90;;;-7.94;86.04;100288.66;10445819;27;97335;-88
2022/01/08 07:13:30;;;;;;;15.80;6.27;;;-5.50;99.90;;;-7.50;86.38;100274.28;10502102;27;98226;-88
2022/01/08 07:18:33;;;;;;;15.13;6.53;;;-5.40;99.90;;;-6.93;86.37;100270.53;10467703;27;98773;-88
2022/01/08 07:23:36;;;;;;;17.80;6.40;;;-5.10;99.90;;;-6.67;85.22;100271.31;10509090;27;97177;-87
2022/01/08 07:28:40;;;;;;;21.33;7.63;;;-4.90;99.90;;;-6.63;84.25;100262.56;10518346;27;97509;-87
2022/01/08 07:33:43;;;;;;;13.10;7.07;;;-4.70;99.90;;;-6.52;83.52;100268.16;10462943;27;98412;-88
2022/01/08 07:38:48;;;;;;;14.93;5.87;;;-4.60;99.90;;;-6.02;83.44;100261.00;10459448;27;97555;-88
2022/01/08 07:43:54;;;;;;;52.93;16.07;;;-4.40;99.90;;;-5.32;82.26;100240.81;10484555;27;98859;-88
2022/01/08 07:48:57;;;;;;;19.97;8.73;;;-4.00;99.90;;;-4.58;81.39;100234.00;10482548;27;97427;-89
2022/01/08 07:54:00;;;;;;;24.60;9.37;;;-3.50;99.90;;;-4.41;79.41;100230.63;10480657;27;98101;-88
2022/01/08 07:59:04;;;;;;;14.37;6.73;;;-3.20;99.90;;;-4.57;77.93;100225.31;10465900;27;97983;-89
2022/01/08 08:04:07;;;;;;;35.87;11.77;;;-3.00;99.90;;;-4.92;77.44;100229.53;10465432;27;96626;-89
2022/01/08 08:09:10;;;;;;;30.53;12.73;;;-3.00;99.90;;;-5.02;77.85;100239.47;10450056;27;97892;-87
2022/01/08 08:14:13;;;;;;;40.73;14.73;;;-3.00;99.90;;;-4.88;78.03;100236.25;10464978;27;98268;-86
2022/01/08 08:19:16;;;;;;;98.57;37.27;;;-3.00;99.90;;;-4.90;77.72;100225.13;10460071;27;96963;-86
2022/01/08 08:24:20;;;;;;;30.53;12.83;;;-2.90;99.90;;;-4.92;77.83;100232.13;10502867;27;98603;-85
2022/01/08 08:29:23;;;;;;;36.37;14.57;;;-2.90;99.90;;;-5.07;77.52;100230.22;10465630;27;97830;-86
2022/01/08 08:34:26;;;;;;;41.63;17.03;;;-2.90;99.90;;;-5.20;77.88;100224.75;10475548;27;99261;-86
2022/01/08 08:39:29;;;;;;;59.30;24.03;;;-3.00;99.90;;;-5.21;79.08;100199.75;10469521;27;96970;-85
2022/01/08 08:44:32;;;;;;;34.03;15.93;;;-3.00;99.90;;;-4.58;79.99;100211.50;10470567;27;96864;-86
2022/01/08 08:49:35;;;;;;;45.67;18.27;;;-2.80;99.90;;;-4.12;78.76;100201.53;10483866;27;97367;-86
2022/01/08 08:54:43;;;;;;;62.60;23.80;;;-2.40;99.90;;;-3.76;78.28;100203.22;10490908;27;96850;-85
2022/01/08 08:59:47;;;;;;;56.27;23.33;;;-2.10;99.90;;;-3.52;77.30;100203.75;10385543;27;96853;-87
2022/01/08 09:04:51;;;;;;;126.53;46.33;;;-1.90;99.90;;;-3.46;76.61;100189.59;10368620;28;98680;-86
2022/01/08 09:09:54;;;;;;;51.30;19.73;;;-1.70;99.90;;;-3.56;75.69;100187.47;10389453;27;96654;-86
2022/01/08 09:14:57;;;;;;;30.77;14.07;;;-1.60;99.90;;;-3.61;75.25;100186.84;10358636;28;97014;-85
2022/01/08 09:20:00;;;;;;;37.30;16.50;;;-1.60;99.90;;;-3.20;75.47;100190.84;10362859;28;96760;-85
2022/01/08 09:25:04;;;;;;;56.67;25.07;;;-1.30;99.90;;;-2.47;75.17;100184.25;10368155;28;96788;-85
2022/01/08 09:30:08;;;;;;;33.47;16.63;;;-0.80;99.90;;;-1.95;73.99;100184.72;10363304;27;98551;-85
2022/01/08 09:35:14;;;;;;;31.10;12.53;;;-0.30;99.90;;;-1.37;72.01;100164.81;10385656;27;97266;-86
2022/01/08 09:40:21;;;;;;;34.03;16.97;;;0.20;99.90;;;-0.95;71.30;100161.34;10355729;28;97959;-85
2022/01/08 09:45:24;;;;;;;33.43;16.27;;;0.60;99.90;;;-0.72;69.43;100161.66;10353008;28;97678;-85
2022/01/08 09:50:27;;;;;;;31.63;15.93;;;0.90;99.90;;;-0.79;68.03;100156.00;10379145;27;96787;-85
2022/01/08 09:55:30;;;;;;;35.70;16.83;;;1.00;99.90;;;-1.02;67.46;100152.25;10376080;28;97294;-85
2022/01/08 10:00:35;;;;;;;37.33;17.47;;;0.80;99.90;;;-1.30;66.40;100149.66;10357342;28;100401;-83
2022/01/08 10:05:54;;;;;;;47.80;20.83;;;0.70;98.20;;;-1.59;66.48;100127.94;10391835;27;97116;-84
2022/01/08 10:11:19;;;;;;;47.37;21.53;;;0.50;99.00;;;-1.74;66.65;100122.75;10367111;28;98416;-83
2022/01/08 10:21:44;;;;;;;31.37;13.57;;;0.30;99.00;;;-1.84;66.73;100108.56;10351417;28;97031;-84
2022/01/08 10:26:51;;;;;;;23.63;10.60;;;0.30;99.00;;;-1.76;66.93;100121.13;10354540;28;98819;-84
2022/01/08 10:31:56;;;;;;;22.97;10.43;;;0.30;99.60;;;-1.71;63.97;100125.16;10362503;28;97384;-83
2022/01/08 10:37:05;;;;;;;21.17;9.23;;;0.40;95.00;;;-1.63;63.32;100114.25;10345645;28;97547;-83
2022/01/08 10:42:12;;;;;;;18.83;8.87;;;0.40;96.40;;;-1.50;63.57;100110.00;10378423;27;98497;-84
2022/01/08 10:47:18;;;;;;;15.50;8.00;;;0.50;95.40;;;-1.34;63.66;100104.66;10352638;28;98183;-84
2022/01/08 10:52:22;;;;;;;25.60;9.07;;;0.70;95.40;;;-1.13;62.58;100111.16;10379191;27;96718;-83
2022/01/08 10:57:37;;;;;;;13.73;5.13;;;0.80;94.70;;;-0.37;63.97;100089.75;10380501;27;96757;-84
2022/01/08 11:02:43;;;;;;;9.87;5.00;;;1.40;97.50;;;0.49;60.28;100103.09;10393418;27;97516;-83
2022/01/08 11:07:46;;;;;;;11.20;5.33;;;2.10;95.10;;;0.82;57.47;100090.38;10381305;27;97350;-83
2022/01/08 11:12:51;;;;;;;10.33;5.37;;;2.40;91.90;;;0.97;57.70;100082.28;10349555;28;97385;-81
2022/01/08 11:17:56;;;;;;;8.93;5.00;;;2.70;92.00;;;0.92;56.37;100073.09;10370972;28;97541;-82
2022/01/08 11:23:25;;;;;;;16.57;8.43;;;2.80;87.30;;;0.88;57.79;100069.84;10345114;28;96853;-85
2022/01/08 11:28:37;;;;;;;12.60;7.23;;;2.80;91.00;;;0.85;57.55;100082.34;10360040;28;98843;-82
2022/01/08 11:33:45;;;;;;;16.95;8.45;;;2.80;89.40;;;0.68;58.03;100080.91;10396076;27;97129;-83
2022/01/08 11:38:49;;;;;;;20.23;8.17;;;2.70;87.40;;;0.54;58.37;100081.88;10354335;28;98446;-83
2022/01/08 11:43:55;;;;;;;20.23;8.60;;;2.60;88.30;;;0.51;58.71;100067.22;10368792;27;98542;-83
2022/01/08 11:48:58;;;;;;;16.73;8.77;;;2.60;89.30;;;0.56;58.77;100060.84;10375186;27;98392;-83
2022/01/08 11:54:03;;;;;;;14.30;6.73;;;2.60;90.10;;;0.56;58.09;100053.00;10365424;28;97511;-83
2022/01/08 11:59:12;;;;;;;14.43;6.70;;;2.60;89.20;;;0.54;57.56;100045.28;10400462;27;98507;-83
2022/01/08 12:04:26;;;;;;;12.23;6.80;;;2.60;87.60;;;0.56;58.13;100043.38;10365945;28;97830;-83
2022/01/08 12:09:34;;;;;;;10.43;4.87;;;2.60;87.30;;;0.59;57.57;100037.06;10361056;28;98452;-83
2022/01/08 12:14:37;;;;;;;12.13;6.13;;;2.60;84.10;;;0.59;56.41;100037.91;10398000;27;97378;-83
2022/01/08 12:19:57;;;;;;;13.27;6.43;;;2.60;82.80;;;0.53;56.19;100025.28;10356453;28;98415;-82
2022/01/08 12:25:02;;;;;;;13.50;6.00;;;2.60;81.20;;;0.50;56.38;100017.66;10367455;27;98172;-82
2022/01/08 12:30:15;;;;;;;12.60;6.23;;;2.60;83.60;;;0.59;57.10;100013.53;10396083;27;97914;-81
2022/01/08 12:40:50;;;;;;;10.90;6.57;;;2.60;83.50;;;0.68;56.38;99995.44;10353291;28;97155;-82
2022/01/08 12:46:24;;;;;;;12.23;6.23;;;2.70;81.90;;;0.74;56.31;99987.16;10383630;27;98209;-82
2022/01/08 12:51:51;;;;;;;10.13;5.77;;;2.80;83.20;;;0.79;55.96;99981.59;10369140;27;96953;-82
2022/01/08 12:56:56;;;;;;;10.77;5.37;;;2.80;82.10;;;0.87;55.45;99978.41;10359281;28;98119;-82
2022/01/08 13:02:00;;;;;;;14.60;7.63;;;2.90;82.80;;;0.82;54.65;99980.53;10402692;27;96829;-83
2022/01/08 13:07:03;;;;;;;20.70;9.83;;;2.90;78.90;;;0.65;54.38;99979.13;10393926;27;96810;-81
2022/01/08 13:12:06;;;;;;;25.87;13.07;;;2.70;79.00;;;0.41;54.72;99973.84;10365487;28;97430;-83
2022/01/08 13:17:12;;;;;;;14.17;8.60;;;2.60;78.60;;;0.21;54.94;99970.88;10361945;28;100375;-82
2022/01/08 13:22:15;;;;;;;17.43;8.13;;;2.40;77.40;;;-0.01;55.58;99970.69;10368902;28;97552;-81
2022/01/08 13:27:20;;;;;;;14.10;6.60;;;2.30;78.50;;;-0.18;56.45;99968.38;10362078;27;98777;-81
2022/01/08 13:32:24;;;;;;;15.20;6.47;;;2.10;79.20;;;-0.32;56.61;99967.56;10361526;28;96541;-81
2022/01/08 13:37:33;;;;;;;8.80;5.07;;;1.90;79.60;;;-0.43;56.84;99961.41;10397282;27;97343;-81
2022/01/08 13:42:40;;;;;;;20.77;10.97;;;1.80;79.80;;;-0.53;57.33;99955.97;10397129;27;96773;-80
2022/01/08 13:47:45;;;;;;;12.87;7.07;;;1.70;79.50;;;-0.62;57.20;99967.84;10366496;27;97706;-81
2022/01/08 13:53:05;;;;;;;15.00;6.57;;;1.70;80.40;;;-0.67;57.59;99956.88;10372380;28;98424;-81
2022/01/08 13:58:19;;;;;;;11.50;5.37;;;1.60;80.10;;;-0.69;57.58;99958.78;10358809;28;98255;-82
2022/01/08 14:03:40;;;;;;;15.67;7.70;;;1.60;80.00;;;-0.77;57.51;99950.63;10400734;27;97277;-80
2022/01/08 14:08:53;;;;;;;23.17;10.37;;;1.50;80.20;;;-0.86;57.59;99959.88;10362533;28;98825;-80
2022/01/08 14:13:58;;;;;;;22.03;9.43;;;1.40;80.30;;;-0.98;58.57;99952.03;10351949;28;97428;-80
2022/01/08 14:19:11;;;;;;;14.67;7.00;;;1.30;80.60;;;-1.13;58.80;99939.06;10392154;27;97184;-79
2022/01/08 14:24:21;;;;;;;14.53;7.33;;;1.20;80.90;;;-1.25;59.11;99934.66;10384504;27;97568;-80
2022/01/08 14:29:25;;;;;;;20.00;9.23;;;1.10;81.10;;;-1.39;59.47;99924.25;10386886;28;96984;-80
2022/01/08 14:34:28;;;;;;;27.97;10.33;;;1.00;81.40;;;-1.53;59.92;99938.19;10365974;28;98175;-82
2022/01/08 14:39:34;;;;;;;28.30;10.13;;;0.80;81.90;;;-1.72;60.88;99932.47;10354209;28;97047;-83
2022/01/08 14:44:41;;;;;;;30.13;11.67;;;0.70;82.60;;;-1.92;61.60;99934.53;10364060;28;98203;-84
2022/01/08 14:49:45;;;;;;;23.57;8.73;;;0.50;83.10;;;-2.09;61.86;99928.72;10353942;28;96923;-84
2022/01/08 14:54:48;;;;;;;21.10;10.43;;;0.30;83.50;;;-2.29;62.49;99927.28;10361117;28;97365;-80
2022/01/08 14:59:51;;;;;;;89.70;29.10;;;0.20;84.20;;;-2.48;63.50;99943.19;10374709;28;96565;-80
2022/01/08 15:04:53;;;;;;;70.97;24.90;;;0.00;85.30;;;-2.66;64.28;99936.47;10354111;28;98454;-82
2022/01/08 15:09:59;;;;;;;80.03;29.80;;;-0.20;85.50;;;-2.83;64.56;99921.84;10344268;28;98218;-84
2022/01/08 15:15:05;;;;;;;56.10;21.20;;;-0.40;85.90;;;-3.01;64.95;99916.78;10356455;28;97731;-83
2022/01/08 15:20:11;;;;;;;54.80;22.73;;;-0.50;86.60;;;-3.16;65.77;99911.66;10371777;27;98823;-82
2022/01/08 15:25:14;;;;;;;37.97;13.77;;;-0.70;87.90;;;-3.33;66.64;99892.66;10389538;27;98840;-82
2022/01/08 15:30:17;;;;;;;32.63;13.50;;;-0.80;89.30;;;-3.38;67.54;99897.28;10374163;28;98010;-84
2022/01/08 15:35:20;;;;;;;88.50;33.03;;;-0.90;90.30;;;-3.47;67.41;99899.56;10389078;28;96956;-84
2022/01/08 15:40:22;;;;;;;112.90;38.97;;;-1.00;89.20;;;-3.56;67.69;99903.50;10430489;28;96399;-82
2022/01/08 15:45:26;;;;;;;63.67;24.33;;;-1.10;89.30;;;-3.66;67.61;99892.78;10441626;28;96750;-85
2022/01/08 15:50:29;;;;;;;46.73;16.80;;;-1.20;90.00;;;-3.75;67.62;99890.72;10405084;28;96558;-84
2022/01/08 15:55:33;;;;;;;23.73;10.13;;;-1.30;90.00;;;-3.83;67.76;99885.13;10403866;28;96425;-85
2022/01/08 16:00:36;;;;;;;22.13;10.30;;;-1.40;90.10;;;-3.92;68.00;99880.41;10380882;28;96387;-86
2022/01/08 16:05:39;;;;;;;44.37;19.60;;;-1.50;90.40;;;-4.00;68.28;99887.78;10406749;28;96714;-86
2022/01/08 16:10:42;;;;;;;36.23;15.73;;;-1.50;90.80;;;-4.08;68.90;99889.03;10383204;28;98220;-84
2022/01/08 16:15:45;;;;;;;34.77;12.50;;;-1.60;91.70;;;-4.16;69.37;99877.38;10379986;28;96441;-84
2022/01/08 16:20:48;;;;;;;25.57;11.77;;;-1.70;91.80;;;-4.28;69.47;99871.09;10411023;27;96582;-84
2022/01/08 16:25:52;;;;;;;37.57;14.27;;;-1.80;92.00;;;-4.39;70.00;99871.66;10383371;28;96553;-85
2022/01/08 16:30:55;;;;;;;38.70;14.90;;;-1.90;92.60;;;-4.43;70.63;99879.72;10379699;28;98076;-85
2022/01/08 16:36:00;;;;;;;36.93;13.40;;;-1.90;93.50;;;-4.49;71.36;99891.25;10383243;28;97338;-85
2022/01/08 16:41:04;;;;;;;39.87;13.27;;;-2.00;93.30;;;-4.49;71.68;99904.22;10378624;28;97169;-84
2022/01/08 16:46:09;;;;;;;40.67;14.10;;;-2.10;95.30;;;-4.43;72.24;99903.06;10402394;28;96540;-86
2022/01/08 16:51:12;;;;;;;59.67;23.00;;;-2.10;94.80;;;-4.20;72.14;99902.66;10411598;27;97238;-85
2022/01/08 16:56:15;;;;;;;73.47;27.50;;;-1.90;94.50;;;-3.90;71.56;99918.38;10374541;28;98282;-86
2022/01/08 17:01:18;;;;;;;32.90;15.47;;;-1.80;94.70;;;-3.61;71.15;99906.34;10367487;28;96532;-85
2022/01/08 17:06:21;;;;;;;30.13;15.37;;;-1.50;95.20;;;-3.35;70.28;99897.13;10401323;28;96439;-84
2022/01/08 17:11:24;;;;;;;30.80;12.33;;;-1.30;94.90;;;-3.15;69.31;99902.94;10418028;27;96845;-85
2022/01/08 17:16:28;;;;;;;24.80;10.70;;;-1.10;94.70;;;-3.05;68.77;99902.31;10350901;28;97060;-85
2022/01/08 17:21:32;;;;;;;24.73;10.30;;;-1.00;94.50;;;-2.97;68.18;99902.69;10375152;28;96573;-85
2022/01/08 17:26:35;;;;;;;24.33;10.83;;;-0.90;94.30;;;-2.86;67.53;99896.03;10340921;28;98170;-85
2022/01/08 17:31:38;;;;;;;31.43;13.47;;;-0.80;94.10;;;-2.77;67.28;99898.91;10357092;28;96581;-85
2022/01/08 17:36:41;;;;;;;32.93;12.20;;;-0.70;94.00;;;-2.65;67.27;99896.50;10382814;28;96450;-84
2022/01/08 17:41:44;;;;;;;23.07;10.77;;;-0.60;94.00;;;-2.55;66.95;99895.88;10396689;27;96437;-86
2022/01/08 17:46:47;;;;;;;26.17;11.00;;;-0.50;94.00;;;-2.48;67.14;99894.56;10403807;28;97515;-84
2022/01/08 17:51:50;;;;;;;28.63;10.83;;;-0.40;94.10;;;-2.41;67.54;99884.63;10417237;28;98263;-84
2022/01/08 17:56:53;;;;;;;31.17;11.57;;;-0.30;94.00;;;-2.36;66.78;99886.97;10417978;27;96405;-84
2022/01/08 18:02:13;;;;;;;34.10;13.97;;;-0.30;93.90;;;-2.34;66.79;99879.88;10396379;28;96502;-85
2022/01/08 18:07:17;;;;;;;28.27;10.70;;;-0.20;93.80;;;-2.30;66.51;99878.78;10408418;27;96893;-85
2022/01/08 18:12:21;;;;;;;26.60;11.07;;;-0.20;93.70;;;-2.25;66.52;99874.97;10364305;28;97426;-84
2022/01/08 18:17:24;;;;;;;28.07;12.47;;;-0.10;93.60;;;-2.23;65.86;99865.28;10372491;27;98168;-84
2022/01/08 18:22:27;;;;;;;36.47;15.90;;;-0.10;93.10;;;-2.28;65.86;99861.28;10377501;27;100063;-83
2022/01/08 18:27:30;;;;;;;44.03;18.27;;;-0.10;93.20;;;-2.36;66.71;99855.72;10362439;28;97782;-84
2022/01/08 18:32:33;;;;;;;48.00;21.33;;;-0.10;93.40;;;-2.49;67.32;99856.47;10369811;28;98064;-83
2022/01/08 18:37:38;;;;;;;48.13;21.00;;;-0.20;93.80;;;-2.59;67.88;99850.16;10379456;28;96530;-83
2022/01/08 18:42:41;;;;;;;57.57;25.57;;;-0.20;93.90;;;-2.65;68.78;99845.31;10360065;28;97433;-83
2022/01/08 18:47:44;;;;;;;50.97;22.97;;;-0.30;94.50;;;-2.66;69.06;99840.22;10376864;28;97399;-83
2022/01/08 18:52:48;;;;;;;52.53;23.10;;;-0.40;94.70;;;-2.64;69.33;99847.00;10369821;28;96963;-83
2022/01/08 18:57:51;;;;;;;62.83;26.07;;;-0.40;95.00;;;-2.60;69.91;99853.69;10369802;28;98115;-84
2022/01/08 19:02:54;;;;;;;65.37;25.70;;;-0.40;95.40;;;-2.56;70.16;99829.19;10389351;28;96864;-84
2022/01/08 19:07:57;;;;;;;42.33;19.07;;;-0.30;95.50;;;-2.48;70.37;99824.31;10354526;28;98666;-83
2022/01/08 19:13:00;;;;;;;37.37;15.70;;;-0.30;95.90;;;-2.42;70.59;99823.13;10370675;28;97464;-83
2022/01/08 19:18:06;;;;;;;35.83;16.20;;;-0.30;96.20;;;-2.36;69.75;99824.50;10375982;27;96696;-82
2022/01/08 19:23:10;;;;;;;53.50;19.10;;;-0.20;95.70;;;-2.30;69.37;99813.72;10363327;28;96895;-83
2022/01/08 19:28:13;;;;;;;53.97;20.83;;;-0.10;95.60;;;-2.26;69.17;99797.81;10353120;28;98375;-83
2022/01/08 19:33:16;;;;;;;36.40;16.43;;;-0.10;95.40;;;-2.24;68.64;99784.69;10380349;27;98257;-84
2022/01/08 19:38:19;;;;;;;34.80;15.30;;;0.00;95.00;;;-2.21;68.20;99787.13;10363953;28;96758;-84
2022/01/08 19:43:23;;;;;;;60.37;22.23;;;0.00;94.90;;;-2.20;68.11;99773.16;10353551;28;100421;-85
2022/01/08 19:48:26;;;;;;;49.63;20.77;;;0.00;95.00;;;-2.20;68.20;99776.59;10385027;27;98022;-88
2022/01/08 19:53:30;;;;;;;37.70;17.30;;;0.00;95.00;;;-2.20;68.27;99762.75;10357822;28;97080;-85
2022/01/08 19:58:33;;;;;;;64.67;23.70;;;0.00;95.00;;;-2.20;68.52;99757.56;10387545;27;96655;-85
2022/01/08 20:03:35;;;;;;;84.60;32.40;;;0.00;95.10;;;-2.24;69.00;99750.88;10360902;28;97447;-84
2022/01/08 20:08:39;;;;;;;55.43;21.67;;;0.00;95.30;;;-2.23;68.63;99753.34;10350510;28;96648;-83
2022/01/08 20:13:42;;;;;;;53.90;20.20;;;0.00;95.20;;;-2.23;68.53;99752.53;10369239;28;97943;-84
2022/01/08 20:18:45;;;;;;;62.60;21.60;;;0.00;95.10;;;-2.23;68.70;99742.13;10395441;27;97171;-82
2022/01/08 20:23:49;;;;;;;89.87;32.23;;;-0.10;95.10;;;-2.26;68.87;99743.16;10372296;27;97191;-83
2022/01/08 20:28:53;;;;;;;56.43;21.23;;;-0.10;95.10;;;-2.28;68.56;99731.16;10344616;28;98217;-84
2022/01/08 20:33:56;;;;;;;42.97;16.93;;;-0.10;95.10;;;-2.33;68.61;99715.03;10360164;28;98188;-84
2022/01/08 20:38:59;;;;;;;44.27;17.60;;;-0.10;95.00;;;-2.39;68.66;99713.66;10366816;28;96570;-86
2022/01/08 20:44:03;;;;;;;53.47;19.87;;;-0.20;95.20;;;-2.52;68.63;99718.78;10340390;28;97630;-85
2022/01/08 20:49:08;;;;;;;25.97;11.13;;;-0.30;95.10;;;-2.57;67.72;99709.59;10359168;27;97690;-87
2022/01/08 20:54:11;;;;;;;52.90;19.17;;;-0.40;94.20;;;-2.68;68.16;99710.28;10379448;27;98567;-85
2022/01/08 20:59:15;;;;;;;47.47;19.20;;;-0.40;94.50;;;-2.72;68.89;99703.59;10342395;28;98617;-85
2022/01/08 21:04:18;;;;;;;37.57;15.53;;;-0.50;95.10;;;-2.75;69.20;99706.41;10371718;28;96606;-85
2022/01/08 21:09:21;;;;;;;42.30;16.97;;;-0.50;95.50;;;-2.74;69.20;99705.47;10368032;28;96562;-88
2022/01/08 21:14:24;;;;;;;50.33;23.50;;;-0.60;95.80;;;-2.74;69.55;99689.84;10390836;27;98058;-86
2022/01/08 21:19:27;;;;;;;46.43;19.43;;;-0.60;95.60;;;-2.79;69.17;99689.31;10353780;28;96940;-87
2022/01/08 21:24:31;;;;;;;37.37;17.23;;;-0.60;95.50;;;-2.89;69.05;99681.22;10388999;27;98197;-87
2022/01/08 21:29:34;;;;;;;41.00;16.20;;;-0.70;95.20;;;-3.09;69.12;99682.47;10376682;27;97050;-84